sensor_id;sensor_type;location;lat;lon;timestamp;pressure;altitude;pressure_sealevel;temperature;humidity
76592;BME280;65481;47.600;19.682;2023-04-16T00:03:58;99944.00;;;7.58;100.00
76592;BME280;65481;47.600;19.682;2023-04-16T00:08:59;99936.50;;;7.62;100.00
76592;BME280;65481;47.600;19.682;2023-04-16T00:13:59;99925.22;;;7.61;100.00
76592;BME280;65481;47.600;19.682;2023-04-16T00:19:00;99940.97;;;7.61;100.00
76592;BME280;65481;47.600;19.682;2023-04-16T00:24:00;99944.19;;;7.63;100.00
76592;BME280;65481;47.600;19.682;2023-04-16T00:29:01;99945.78;;;7.64;100.00
76592;BME280;65481;47.600;19.682;2023-04-16T00:34:01;99947.06;;;6.97;100.00
76592;BME280;65481;47.600;19.682;2023-04-16T00:39:02;99957.06;;;6.75;100.00
76592;BME280;65481;47.600;19.682;2023-04-16T00:44:03;99951.38;;;6.78;100.00
76592;BME280;65481;47.600;19.682;2023-04-16T00:49:03;99946.34;;;6.77;100.00
76592;BME280;65481;47.600;19.682;2023-04-16T00:54:05;99939.28;;;6.84;100.00
76592;BME280;65481;47.600;19.682;2023-04-16T00:59:06;99940.84;;;6.92;100.00
76592;BME280;65481;47.600;19.682;2023-04-16T01:04:06;99935.69;;;7.04;100.00
76592;BME280;65481;47.600;19.682;2023-04-16T01:09:07;99936.09;;;7.07;100.00
76592;BME280;65481;47.600;19.682;2023-04-16T01:14:08;99934.84;;;6.78;100.00
76592;BME280;65481;47.600;19.682;2023-04-16T01:19:09;99926.91;;;6.53;100.00
76592;BME280;65481;47.600;19.682;2023-04-16T01:24:09;99942.50;;;6.34;100.00
76592;BME280;65481;47.600;19.682;2023-04-16T01:29:10;99937.72;;;6.11;100.00
76592;BME280;65481;47.600;19.682;2023-04-16T01:34:11;99942.97;;;5.84;100.00
76592;BME280;65481;47.600;19.682;2023-04-16T01:39:11;99939.56;;;5.56;100.00
76592;BME280;65481;47.600;19.682;2023-04-16T01:44:14;99949.22;;;5.49;100.00
76592;BME280;65481;47.600;19.682;2023-04-16T01:49:16;99955.03;;;5.38;100.00
76592;BME280;65481;47.600;19.682;2023-04-16T01:54:16;99963.88;;;5.23;100.00
76592;BME280;65481;47.600;19.682;2023-04-16T01:59:17;99959.44;;;5.30;100.00
76592;BME280;65481;47.600;19.682;2023-04-16T02:04:17;99960.28;;;5.31;100.00
76592;BME280;65481;47.600;19.682;2023-04-16T02:09:18;99954.44;;;5.42;100.00
76592;BME280;65481;47.600;19.682;2023-04-16T02:14:18;99959.50;;;5.37;100.00
76592;BME280;65481;47.600;19.682;2023-04-16T02:19:19;99957.88;;;5.36;100.00
76592;BME280;65481;47.600;19.682;2023-04-16T02:24:20;99970.75;;;5.38;100.00
76592;BME280;65481;47.600;19.682;2023-04-16T02:29:20;99975.38;;;5.36;100.00
76592;BME280;65481;47.600;19.682;2023-04-16T02:34:21;99974.72;;;5.00;100.00
76592;BME280;65481;47.600;19.682;2023-04-16T02:39:22;99979.66;;;4.75;100.00
76592;BME280;65481;47.600;19.682;2023-04-16T02:44:22;99970.94;;;4.61;100.00
76592;BME280;65481;47.600;19.682;2023-04-16T02:49:23;99970.06;;;4.47;100.00
76592;BME280;65481;47.600;19.682;2023-04-16T02:54:23;99961.59;;;4.38;100.00
76592;BME280;65481;47.600;19.682;2023-04-16T02:59:24;99966.03;;;4.44;100.00
76592;BME280;65481;47.600;19.682;2023-04-16T03:04:24;99971.31;;;4.51;100.00
76592;BME280;65481;47.600;19.682;2023-04-16T03:09:25;99967.88;;;4.50;100.00
76592;BME280;65481;47.600;19.682;2023-04-16T03:14:26;99981.94;;;4.49;100.00
76592;BME280;65481;47.600;19.682;2023-04-16T03:19:26;99989.94;;;4.41;100.00
76592;BME280;65481;47.600;19.682;2023-04-16T03:24:27;100001.50;;;4.25;100.00
76592;BME280;65481;47.600;19.682;2023-04-16T03:29:28;99997.03;;;4.19;100.00
76592;BME280;65481;47.600;19.682;2023-04-16T03:34:29;99995.97;;;4.13;100.00
76592;BME280;65481;47.600;19.682;2023-04-16T03:39:29;100007.72;;;4.24;100.00
76592;BME280;65481;47.600;19.682;2023-04-16T03:44:30;100024.41;;;4.30;100.00
76592;BME280;65481;47.600;19.682;2023-04-16T03:49:30;100035.44;;;4.25;100.00
76592;BME280;65481;47.600;19.682;2023-04-16T03:54:31;100022.97;;;4.20;100.00
76592;BME280;65481;47.600;19.682;2023-04-16T03:59:31;100030.59;;;4.22;100.00
76592;BME280;65481;47.600;19.682;2023-04-16T04:04:32;100019.78;;;4.25;100.00
76592;BME280;65481;47.600;19.682;2023-04-16T04:09:32;100030.19;;;4.18;100.00
76592;BME280;65481;47.600;19.682;2023-04-16T04:14:33;100027.75;;;4.17;100.00
76592;BME280;65481;47.600;19.682;2023-04-16T04:19:38;100034.41;;;4.19;100.00
76592;BME280;65481;47.600;19.682;2023-04-16T04:24:39;100031.75;;;4.13;100.00
76592;BME280;65481;47.600;19.682;2023-04-16T04:29:39;100032.53;;;4.13;100.00
76592;BME280;65481;47.600;19.682;2023-04-16T04:34:40;100045.66;;;4.20;100.00
76592;BME280;65481;47.600;19.682;2023-04-16T04:39:40;100048.78;;;4.37;100.00
76592;BME280;65481;47.600;19.682;2023-04-16T04:44:41;100050.69;;;4.50;100.00
76592;BME280;65481;47.600;19.682;2023-04-16T04:49:41;100040.69;;;4.60;100.00
76592;BME280;65481;47.600;19.682;2023-04-16T04:54:42;100046.66;;;4.82;100.00
76592;BME280;65481;47.600;19.682;2023-04-16T04:59:42;100057.78;;;4.98;100.00
76592;BME280;65481;47.600;19.682;2023-04-16T05:04:43;100079.38;;;5.20;100.00
76592;BME280;65481;47.600;19.682;2023-04-16T05:09:44;100064.94;;;5.44;100.00
76592;BME280;65481;47.600;19.682;2023-04-16T05:14:45;100077.72;;;5.74;100.00
76592;BME280;65481;47.600;19.682;2023-04-16T05:19:45;100090.47;;;6.04;100.00
76592;BME280;65481;47.600;19.682;2023-04-16T05:24:46;100089.84;;;6.29;100.00
76592;BME280;65481;47.600;19.682;2023-04-16T05:29:46;100078.13;;;6.52;100.00
76592;BME280;65481;47.600;19.682;2023-04-16T05:34:47;100087.69;;;6.99;100.00
76592;BME280;65481;47.600;19.682;2023-04-16T05:39:47;100090.25;;;7.19;100.00
76592;BME280;65481;47.600;19.682;2023-04-16T05:44:50;100097.44;;;7.37;100.00
76592;BME280;65481;47.600;19.682;2023-04-16T05:49:51;100102.91;;;7.67;100.00
76592;BME280;65481;47.600;19.682;2023-04-16T05:54:51;100094.06;;;7.94;100.00
76592;BME280;65481;47.600;19.682;2023-04-16T05:59:52;100102.88;;;8.06;100.00
76592;BME280;65481;47.600;19.682;2023-04-16T06:04:52;100104.91;;;8.29;100.00
76592;BME280;65481;47.600;19.682;2023-04-16T06:09:53;100104.31;;;8.53;100.00
76592;BME280;65481;47.600;19.682;2023-04-16T06:14:54;100092.34;;;8.94;100.00
76592;BME280;65481;47.600;19.682;2023-04-16T06:19:54;100103.31;;;9.09;100.00
76592;BME280;65481;47.600;19.682;2023-04-16T06:24:55;100103.09;;;9.30;100.00
76592;BME280;65481;47.600;19.682;2023-04-16T06:29:56;100098.53;;;9.67;100.00
76592;BME280;65481;47.600;19.682;2023-04-16T06:34:57;100093.00;;;10.11;100.00
76592;BME280;65481;47.600;19.682;2023-04-16T06:39:58;100091.97;;;10.12;100.00
76592;BME280;65481;47.600;19.682;2023-04-16T06:44:58;100092.19;;;10.35;100.00
76592;BME280;65481;47.600;19.682;2023-04-16T06:49:58;100085.25;;;11.05;100.00
76592;BME280;65481;47.600;19.682;2023-04-16T06:54:59;100094.16;;;11.74;100.00
76592;BME280;65481;47.600;19.682;2023-04-16T06:59:59;100096.19;;;12.35;100.00
76592;BME280;65481;47.600;19.682;2023-04-16T07:05:00;100096.88;;;12.64;100.00
76592;BME280;65481;47.600;19.682;2023-04-16T07:10:00;100092.00;;;12.78;100.00
76592;BME280;65481;47.600;19.682;2023-04-16T07:15:01;100092.81;;;12.79;100.00
76592;BME280;65481;47.600;19.682;2023-04-16T07:20:01;100091.78;;;12.80;100.00
76592;BME280;65481;47.600;19.682;2023-04-16T07:25:02;100083.72;;;12.92;100.00
76592;BME280;65481;47.600;19.682;2023-04-16T07:30:03;100088.00;;;13.20;100.00
76592;BME280;65481;47.600;19.682;2023-04-16T07:35:04;100090.41;;;13.76;100.00
76592;BME280;65481;47.600;19.682;2023-04-16T07:40:05;100099.66;;;14.44;100.00
76592;BME280;65481;47.600;19.682;2023-04-16T07:45:06;100095.66;;;14.84;100.00
76592;BME280;65481;47.600;19.682;2023-04-16T07:50:07;100093.13;;;15.21;100.00
76592;BME280;65481;47.600;19.682;2023-04-16T07:55:08;100093.72;;;15.59;99.94
76592;BME280;65481;47.600;19.682;2023-04-16T08:00:09;100092.94;;;16.15;90.18
76592;BME280;65481;47.600;19.682;2023-04-16T08:05:09;100099.44;;;16.85;82.72
76592;BME280;65481;47.600;19.682;2023-04-16T08:10:11;100097.50;;;17.06;78.51
76592;BME280;65481;47.600;19.682;2023-04-16T08:15:12;100087.13;;;17.50;74.55
76592;BME280;65481;47.600;19.682;2023-04-16T08:20:12;100089.06;;;18.08;70.37
76592;BME280;65481;47.600;19.682;2023-04-16T08:25:13;100092.75;;;18.42;66.14
76592;BME280;65481;47.600;19.682;2023-04-16T08:30:14;100093.44;;;18.77;62.40
76592;BME280;65481;47.600;19.682;2023-04-16T08:35:16;100101.53;;;19.34;59.82
76592;BME280;65481;47.600;19.682;2023-04-16T08:40:16;100103.47;;;19.67;56.69
76592;BME280;65481;47.600;19.682;2023-04-16T08:45:17;100106.25;;;19.76;54.35
76592;BME280;65481;47.600;19.682;2023-04-16T08:50:25;100110.22;;;19.78;54.61
76592;BME280;65481;47.600;19.682;2023-04-16T08:55:35;100122.13;;;19.53;54.61
76592;BME280;65481;47.600;19.682;2023-04-16T09:00:36;100115.78;;;19.82;53.46
76592;BME280;65481;47.600;19.682;2023-04-16T09:05:38;100116.78;;;19.86;51.87
76592;BME280;65481;47.600;19.682;2023-04-16T09:10:38;100119.91;;;19.74;51.56
76592;BME280;65481;47.600;19.682;2023-04-16T09:15:40;100133.03;;;19.37;51.61
76592;BME280;65481;47.600;19.682;2023-04-16T09:20:40;100127.34;;;19.25;51.75
76592;BME280;65481;47.600;19.682;2023-04-16T09:25:41;100132.31;;;19.13;52.68
76592;BME280;65481;47.600;19.682;2023-04-16T09:30:41;100130.03;;;19.01;52.76
76592;BME280;65481;47.600;19.682;2023-04-16T09:35:46;100138.50;;;18.84;53.30
76592;BME280;65481;47.600;19.682;2023-04-16T09:40:47;100139.50;;;18.39;52.33
76592;BME280;65481;47.600;19.682;2023-04-16T09:45:52;100145.78;;;17.90;53.74
76592;BME280;65481;47.600;19.682;2023-04-16T09:50:52;100146.38;;;17.36;55.47
76592;BME280;65481;47.600;19.682;2023-04-16T09:56:02;100150.41;;;17.79;54.91
76592;BME280;65481;47.600;19.682;2023-04-16T10:01:06;100157.09;;;17.76;55.52
76592;BME280;65481;47.600;19.682;2023-04-16T10:11:14;100149.00;;;17.86;57.02
76592;BME280;65481;47.600;19.682;2023-04-16T10:16:15;100143.06;;;18.29;55.44
76592;BME280;65481;47.600;19.682;2023-04-16T10:21:15;100152.22;;;18.77;55.48
76592;BME280;65481;47.600;19.682;2023-04-16T10:26:17;100142.53;;;18.57;55.20
76592;BME280;65481;47.600;19.682;2023-04-16T10:31:17;100137.72;;;18.59;55.49
76592;BME280;65481;47.600;19.682;2023-04-16T10:36:24;100139.69;;;18.48;55.29
76592;BME280;65481;47.600;19.682;2023-04-16T10:41:28;100129.53;;;18.21;56.03
76592;BME280;65481;47.600;19.682;2023-04-16T10:46:40;100133.13;;;18.35;55.79
76592;BME280;65481;47.600;19.682;2023-04-16T10:51:41;100128.72;;;18.25;56.51
76592;BME280;65481;47.600;19.682;2023-04-16T10:56:43;100129.91;;;18.09;57.53
76592;BME280;65481;47.600;19.682;2023-04-16T11:01:49;100123.91;;;17.88;57.41
76592;BME280;65481;47.600;19.682;2023-04-16T11:12:11;100117.88;;;17.71;58.62
76592;BME280;65481;47.600;19.682;2023-04-16T11:17:12;100117.66;;;17.68;58.91
76592;BME280;65481;47.600;19.682;2023-04-16T11:22:14;100113.88;;;17.74;58.65
76592;BME280;65481;47.600;19.682;2023-04-16T11:27:16;100115.81;;;17.63;58.55
76592;BME280;65481;47.600;19.682;2023-04-16T11:32:20;100112.72;;;17.85;58.66
76592;BME280;65481;47.600;19.682;2023-04-16T11:37:40;100114.06;;;18.17;57.24
76592;BME280;65481;47.600;19.682;2023-04-16T11:42:41;100107.22;;;18.36;56.34
76592;BME280;65481;47.600;19.682;2023-04-16T11:52:51;100096.84;;;18.58;54.46
76592;BME280;65481;47.600;19.682;2023-04-16T11:57:52;100094.44;;;18.81;53.00
76592;BME280;65481;47.600;19.682;2023-04-16T12:02:52;100088.16;;;18.91;51.39
76592;BME280;65481;47.600;19.682;2023-04-16T12:07:54;100090.56;;;18.92;50.16
76592;BME280;65481;47.600;19.682;2023-04-16T12:13:09;100079.03;;;18.97;48.37
76592;BME280;65481;47.600;19.682;2023-04-16T12:18:10;100077.09;;;19.22;48.40
76592;BME280;65481;47.600;19.682;2023-04-16T12:23:28;100071.59;;;19.32;46.94
76592;BME280;65481;47.600;19.682;2023-04-16T12:28:33;100070.44;;;19.19;45.76
76592;BME280;65481;47.600;19.682;2023-04-16T12:33:34;100069.66;;;19.19;44.32
76592;BME280;65481;47.600;19.682;2023-04-16T12:38:35;100072.59;;;19.17;44.33
76592;BME280;65481;47.600;19.682;2023-04-16T12:43:35;100063.44;;;19.24;43.85
76592;BME280;65481;47.600;19.682;2023-04-16T12:48:36;100055.78;;;19.17;43.77
76592;BME280;65481;47.600;19.682;2023-04-16T12:53:37;100045.66;;;19.14;44.32
76592;BME280;65481;47.600;19.682;2023-04-16T12:58:37;100039.28;;;19.10;44.71
76592;BME280;65481;47.600;19.682;2023-04-16T13:03:38;100033.34;;;19.32;44.49
76592;BME280;65481;47.600;19.682;2023-04-16T13:08:39;100039.41;;;19.37;44.75
76592;BME280;65481;47.600;19.682;2023-04-16T13:13:40;100027.06;;;19.56;44.09
76592;BME280;65481;47.600;19.682;2023-04-16T13:18:40;100026.97;;;19.80;43.56
76592;BME280;65481;47.600;19.682;2023-04-16T13:23:41;100026.22;;;19.93;43.28
76592;BME280;65481;47.600;19.682;2023-04-16T13:28:42;100016.03;;;19.76;43.45
76592;BME280;65481;47.600;19.682;2023-04-16T13:33:42;100016.28;;;19.94;42.57
76592;BME280;65481;47.600;19.682;2023-04-16T13:38:43;100008.88;;;20.19;42.36
76592;BME280;65481;47.600;19.682;2023-04-16T13:43:43;100003.38;;;20.52;42.14
76592;BME280;65481;47.600;19.682;2023-04-16T13:48:44;100003.38;;;20.66;41.69
76592;BME280;65481;47.600;19.682;2023-04-16T13:53:45;99998.09;;;20.88;41.21
76592;BME280;65481;47.600;19.682;2023-04-16T13:58:46;99996.53;;;20.60;41.76
76592;BME280;65481;47.600;19.682;2023-04-16T14:03:48;99993.19;;;20.40;43.98
76592;BME280;65481;47.600;19.682;2023-04-16T14:08:48;99997.88;;;20.06;45.14
76592;BME280;65481;47.600;19.682;2023-04-16T14:13:49;99999.69;;;19.78;45.73
76592;BME280;65481;47.600;19.682;2023-04-16T14:18:49;99998.97;;;19.58;46.00
76592;BME280;65481;47.600;19.682;2023-04-16T14:23:51;99995.22;;;19.40;46.32
76592;BME280;65481;47.600;19.682;2023-04-16T14:28:51;99995.59;;;19.33;46.92
76592;BME280;65481;47.600;19.682;2023-04-16T14:33:52;99992.72;;;19.30;46.79
76592;BME280;65481;47.600;19.682;2023-04-16T14:38:52;99983.63;;;19.12;46.47
76592;BME280;65481;47.600;19.682;2023-04-16T14:43:53;99982.22;;;19.00;46.73
76592;BME280;65481;47.600;19.682;2023-04-16T14:48:53;99985.50;;;18.92;46.86
76592;BME280;65481;47.600;19.682;2023-04-16T14:53:55;99981.03;;;18.87;47.17
76592;BME280;65481;47.600;19.682;2023-04-16T14:58:55;99977.97;;;18.94;47.40
76592;BME280;65481;47.600;19.682;2023-04-16T15:03:55;99968.94;;;18.90;47.61
76592;BME280;65481;47.600;19.682;2023-04-16T15:08:56;99969.84;;;19.04;47.40
76592;BME280;65481;47.600;19.682;2023-04-16T15:13:57;99956.91;;;19.12;47.23
76592;BME280;65481;47.600;19.682;2023-04-16T15:18:58;99956.75;;;18.84;46.45
76592;BME280;65481;47.600;19.682;2023-04-16T15:23:58;99956.91;;;18.73;46.25
76592;BME280;65481;47.600;19.682;2023-04-16T15:28:59;99959.06;;;19.10;46.29
76592;BME280;65481;47.600;19.682;2023-04-16T15:33:59;99954.47;;;19.29;44.80
76592;BME280;65481;47.600;19.682;2023-04-16T15:39:02;99962.59;;;19.57;44.48
76592;BME280;65481;47.600;19.682;2023-04-16T15:44:02;99962.84;;;19.56;44.03
76592;BME280;65481;47.600;19.682;2023-04-16T15:49:03;99961.25;;;19.41;44.16
76592;BME280;65481;47.600;19.682;2023-04-16T15:54:04;99957.97;;;19.30;43.56
76592;BME280;65481;47.600;19.682;2023-04-16T15:59:05;99965.94;;;19.16;43.96
76592;BME280;65481;47.600;19.682;2023-04-16T16:04:06;99968.69;;;19.11;44.15
76592;BME280;65481;47.600;19.682;2023-04-16T16:09:07;99962.09;;;18.84;44.30
76592;BME280;65481;47.600;19.682;2023-04-16T16:14:08;99964.50;;;18.66;44.75
76592;BME280;65481;47.600;19.682;2023-04-16T16:19:08;99962.66;;;18.42;45.41
76592;BME280;65481;47.600;19.682;2023-04-16T16:24:08;99970.91;;;18.22;45.63
76592;BME280;65481;47.600;19.682;2023-04-16T16:29:09;99968.63;;;18.10;46.20
76592;BME280;65481;47.600;19.682;2023-04-16T16:34:10;99969.06;;;17.98;46.70
76592;BME280;65481;47.600;19.682;2023-04-16T16:39:11;99964.09;;;17.86;47.43
76592;BME280;65481;47.600;19.682;2023-04-16T16:44:11;99965.06;;;17.66;48.15
76592;BME280;65481;47.600;19.682;2023-04-16T16:49:13;99960.94;;;17.49;48.89
76592;BME280;65481;47.600;19.682;2023-04-16T16:54:15;99962.16;;;17.33;50.75
76592;BME280;65481;47.600;19.682;2023-04-16T16:59:15;99966.38;;;17.04;53.63
76592;BME280;65481;47.600;19.682;2023-04-16T17:04:16;99966.75;;;16.82;55.33
76592;BME280;65481;47.600;19.682;2023-04-16T17:09:17;99972.41;;;16.70;57.06
76592;BME280;65481;47.600;19.682;2023-04-16T17:14:18;99966.94;;;16.51;59.22
76592;BME280;65481;47.600;19.682;2023-04-16T17:19:20;99971.81;;;16.23;61.35
76592;BME280;65481;47.600;19.682;2023-04-16T17:24:21;99971.09;;;15.97;63.32
76592;BME280;65481;47.600;19.682;2023-04-16T17:29:22;99971.09;;;15.71;65.33
76592;BME280;65481;47.600;19.682;2023-04-16T17:34:25;99974.59;;;15.51;67.28
76592;BME280;65481;47.600;19.682;2023-04-16T17:39:25;99978.59;;;15.33;69.49
76592;BME280;65481;47.600;19.682;2023-04-16T17:44:26;99983.88;;;15.12;71.67
76592;BME280;65481;47.600;19.682;2023-04-16T17:49:27;99984.63;;;14.92;74.05
76592;BME280;65481;47.600;19.682;2023-04-16T17:54:28;99981.69;;;14.83;74.67
76592;BME280;65481;47.600;19.682;2023-04-16T17:59:28;99989.13;;;14.81;74.67
76592;BME280;65481;47.600;19.682;2023-04-16T18:04:29;99989.88;;;14.71;75.56
76592;BME280;65481;47.600;19.682;2023-04-16T18:09:30;99999.66;;;14.60;75.69
76592;BME280;65481;47.600;19.682;2023-04-16T18:14:35;100007.56;;;14.50;75.50
76592;BME280;65481;47.600;19.682;2023-04-16T18:19:37;99999.03;;;14.37;75.10
76592;BME280;65481;47.600;19.682;2023-04-16T18:24:39;100007.16;;;14.20;75.93
76592;BME280;65481;47.600;19.682;2023-04-16T18:29:40;100008.22;;;14.14;76.21
76592;BME280;65481;47.600;19.682;2023-04-16T18:34:41;100003.69;;;14.15;76.69
76592;BME280;65481;47.600;19.682;2023-04-16T18:39:42;100002.88;;;14.09;77.30
76592;BME280;65481;47.600;19.682;2023-04-16T18:44:43;100011.84;;;14.03;77.91
76592;BME280;65481;47.600;19.682;2023-04-16T18:49:44;100009.91;;;13.93;78.73
76592;BME280;65481;47.600;19.682;2023-04-16T18:54:44;100013.84;;;13.85;79.23
76592;BME280;65481;47.600;19.682;2023-04-16T18:59:45;100014.03;;;13.73;80.33
76592;BME280;65481;47.600;19.682;2023-04-16T19:04:48;100018.50;;;13.68;81.26
76592;BME280;65481;47.600;19.682;2023-04-16T19:09:49;100017.06;;;13.55;82.23
76592;BME280;65481;47.600;19.682;2023-04-16T19:14:50;100010.38;;;13.47;82.86
76592;BME280;65481;47.600;19.682;2023-04-16T19:19:52;100008.66;;;13.36;83.57
76592;BME280;65481;47.600;19.682;2023-04-16T19:24:53;99996.34;;;13.24;84.65
76592;BME280;65481;47.600;19.682;2023-04-16T19:29:54;99987.56;;;13.18;85.43
76592;BME280;65481;47.600;19.682;2023-04-16T19:34:55;99994.13;;;13.11;86.35
76592;BME280;65481;47.600;19.682;2023-04-16T19:39:56;99996.19;;;13.03;87.28
76592;BME280;65481;47.600;19.682;2023-04-16T19:44:57;99989.53;;;13.01;87.60
76592;BME280;65481;47.600;19.682;2023-04-16T19:49:57;99995.28;;;12.93;88.40
76592;BME280;65481;47.600;19.682;2023-04-16T19:54:58;99989.06;;;12.82;89.78
76592;BME280;65481;47.600;19.682;2023-04-16T19:59:59;99990.06;;;12.76;90.31
76592;BME280;65481;47.600;19.682;2023-04-16T20:05:00;99988.91;;;12.66;90.83
76592;BME280;65481;47.600;19.682;2023-04-16T20:10:01;99990.44;;;12.62;90.98
76592;BME280;65481;47.600;19.682;2023-04-16T20:15:02;99991.47;;;12.61;90.74
76592;BME280;65481;47.600;19.682;2023-04-16T20:20:04;99984.47;;;12.50;90.92
76592;BME280;65481;47.600;19.682;2023-04-16T20:25:12;99986.25;;;12.44;91.22
76592;BME280;65481;47.600;19.682;2023-04-16T20:30:13;99981.63;;;12.34;91.87
76592;BME280;65481;47.600;19.682;2023-04-16T20:35:14;99979.63;;;12.24;92.33
76592;BME280;65481;47.600;19.682;2023-04-16T20:40:14;99982.41;;;12.13;93.19
76592;BME280;65481;47.600;19.682;2023-04-16T20:45:15;99982.56;;;12.06;93.40
76592;BME280;65481;47.600;19.682;2023-04-16T20:50:16;99984.59;;;11.99;93.30
76592;BME280;65481;47.600;19.682;2023-04-16T20:55:17;99989.78;;;11.93;93.26
76592;BME280;65481;47.600;19.682;2023-04-16T21:13:24;99978.81;;;11.85;92.66
76592;BME280;65481;47.600;19.682;2023-04-16T21:18:24;99971.38;;;11.64;93.43
76592;BME280;65481;47.600;19.682;2023-04-16T21:23:25;99973.78;;;11.49;94.08
76592;BME280;65481;47.600;19.682;2023-04-16T21:28:25;99970.75;;;11.40;94.07
76592;BME280;65481;47.600;19.682;2023-04-16T21:33:26;99972.25;;;11.36;94.07
76592;BME280;65481;47.600;19.682;2023-04-16T21:38:26;99973.28;;;11.35;93.92
76592;BME280;65481;47.600;19.682;2023-04-16T21:43:27;99964.81;;;11.33;93.95
76592;BME280;65481;47.600;19.682;2023-04-16T21:48:31;99964.72;;;11.28;94.47
76592;BME280;65481;47.600;19.682;2023-04-16T21:53:32;99958.47;;;11.17;94.84
76592;BME280;65481;47.600;19.682;2023-04-16T21:58:32;99960.38;;;11.04;95.07
76592;BME280;65481;47.600;19.682;2023-04-16T22:03:33;99951.72;;;10.92;96.29
76592;BME280;65481;47.600;19.682;2023-04-16T22:08:33;99949.53;;;10.89;96.29
76592;BME280;65481;47.600;19.682;2023-04-16T22:13:34;99943.94;;;10.85;96.57
76592;BME280;65481;47.600;19.682;2023-04-16T22:18:35;99948.16;;;10.86;96.20
76592;BME280;65481;47.600;19.682;2023-04-16T22:23:36;99942.19;;;10.91;95.42
76592;BME280;65481;47.600;19.682;2023-04-16T22:28:37;99941.63;;;10.89;94.68
76592;BME280;65481;47.600;19.682;2023-04-16T22:33:37;99939.53;;;10.91;94.41
76592;BME280;65481;47.600;19.682;2023-04-16T22:38:38;99950.78;;;10.86;94.53
76592;BME280;65481;47.600;19.682;2023-04-16T22:43:38;99945.09;;;10.78;95.77
76592;BME280;65481;47.600;19.682;2023-04-16T22:48:39;99929.91;;;10.68;97.23
76592;BME280;65481;47.600;19.682;2023-04-16T22:53:40;99925.56;;;10.62;97.51
76592;BME280;65481;47.600;19.682;2023-04-16T22:58:40;99929.34;;;10.66;97.36
76592;BME280;65481;47.600;19.682;2023-04-16T23:03:41;99924.13;;;10.71;96.28
76592;BME280;65481;47.600;19.682;2023-04-16T23:08:42;99921.03;;;10.74;96.17
76592;BME280;65481;47.600;19.682;2023-04-16T23:13:43;99918.28;;;10.69;96.28
76592;BME280;65481;47.600;19.682;2023-04-16T23:18:43;99914.06;;;10.68;96.82
76592;BME280;65481;47.600;19.682;2023-04-16T23:23:44;99915.56;;;10.64;97.17
76592;BME280;65481;47.600;19.682;2023-04-16T23:28:44;99912.22;;;10.68;96.88
76592;BME280;65481;47.600;19.682;2023-04-16T23:33:45;99912.78;;;10.70;96.45
76592;BME280;65481;47.600;19.682;2023-04-16T23:38:45;99917.34;;;10.75;96.32
76592;BME280;65481;47.600;19.682;2023-04-16T23:43:46;99913.53;;;10.83;95.29
76592;BME280;65481;47.600;19.682;2023-04-16T23:48:46;99907.06;;;10.90;94.71
76592;BME280;65481;47.600;19.682;2023-04-16T23:53:47;99906.69;;;10.99;94.45
76592;BME280;65481;47.600;19.682;2023-04-16T23:58:47;99894.69;;;10.91;95.04
